sensor_id;sensor_type;location;lat;lon;timestamp;temperature;humidity
12386;DHT22;6257;57.634;18.310;2023-07-22T00:00:26;15.40;99.90
12386;DHT22;6257;57.634;18.310;2023-07-22T00:02:53;15.40;99.90
12386;DHT22;6257;57.634;18.310;2023-07-22T00:05:20;15.40;99.90
12386;DHT22;6257;57.634;18.310;2023-07-22T00:07:48;15.30;99.90
12386;DHT22;6257;57.634;18.310;2023-07-22T00:10:16;15.30;99.90
12386;DHT22;6257;57.634;18.310;2023-07-22T00:12:44;15.30;99.90
12386;DHT22;6257;57.634;18.310;2023-07-22T00:17:39;15.30;99.90
12386;DHT22;6257;57.634;18.310;2023-07-22T00:20:08;15.20;99.90
12386;DHT22;6257;57.634;18.310;2023-07-22T00:27:36;15.30;99.90
12386;DHT22;6257;57.634;18.310;2023-07-22T00:30:06;15.30;99.90
12386;DHT22;6257;57.634;18.310;2023-07-22T00:32:33;15.30;99.90
12386;DHT22;6257;57.634;18.310;2023-07-22T00:35:02;15.20;99.90
12386;DHT22;6257;57.634;18.310;2023-07-22T00:37:31;15.20;99.90
12386;DHT22;6257;57.634;18.310;2023-07-22T00:39:58;15.10;99.90
12386;DHT22;6257;57.634;18.310;2023-07-22T00:42:25;15.10;99.90
12386;DHT22;6257;57.634;18.310;2023-07-22T00:44:52;15.10;99.90
12386;DHT22;6257;57.634;18.310;2023-07-22T00:47:21;15.10;99.90
12386;DHT22;6257;57.634;18.310;2023-07-22T00:49:49;15.10;99.90
12386;DHT22;6257;57.634;18.310;2023-07-22T00:52:17;15.00;99.90
12386;DHT22;6257;57.634;18.310;2023-07-22T00:54:44;15.00;99.90
12386;DHT22;6257;57.634;18.310;2023-07-22T00:57:11;15.00;99.90
12386;DHT22;6257;57.634;18.310;2023-07-22T00:59:39;15.00;99.90
12386;DHT22;6257;57.634;18.310;2023-07-22T01:02:06;15.00;99.90
12386;DHT22;6257;57.634;18.310;2023-07-22T01:04:35;15.00;99.90
12386;DHT22;6257;57.634;18.310;2023-07-22T01:07:04;14.90;99.90
12386;DHT22;6257;57.634;18.310;2023-07-22T01:09:36;15.00;99.90
12386;DHT22;6257;57.634;18.310;2023-07-22T01:12:04;15.00;99.90
12386;DHT22;6257;57.634;18.310;2023-07-22T01:14:33;15.00;99.90
12386;DHT22;6257;57.634;18.310;2023-07-22T01:17:01;15.00;99.90
12386;DHT22;6257;57.634;18.310;2023-07-22T01:19:28;15.00;99.90
12386;DHT22;6257;57.634;18.310;2023-07-22T01:22:00;15.00;99.90
12386;DHT22;6257;57.634;18.310;2023-07-22T01:24:29;14.90;99.90
12386;DHT22;6257;57.634;18.310;2023-07-22T01:26:56;14.90;99.90
12386;DHT22;6257;57.634;18.310;2023-07-22T01:29:24;14.90;99.90
12386;DHT22;6257;57.634;18.310;2023-07-22T01:31:53;14.90;99.90
12386;DHT22;6257;57.634;18.310;2023-07-22T01:34:21;14.90;99.90
12386;DHT22;6257;57.634;18.310;2023-07-22T01:36:50;14.90;99.90
12386;DHT22;6257;57.634;18.310;2023-07-22T01:39:17;14.80;99.90
12386;DHT22;6257;57.634;18.310;2023-07-22T01:41:46;14.80;99.90
12386;DHT22;6257;57.634;18.310;2023-07-22T01:44:13;14.80;99.90
12386;DHT22;6257;57.634;18.310;2023-07-22T01:46:41;14.80;99.90
12386;DHT22;6257;57.634;18.310;2023-07-22T01:49:10;14.80;99.90
12386;DHT22;6257;57.634;18.310;2023-07-22T01:51:38;14.70;99.90
12386;DHT22;6257;57.634;18.310;2023-07-22T01:54:06;14.70;99.90
12386;DHT22;6257;57.634;18.310;2023-07-22T01:56:34;14.70;99.90
12386;DHT22;6257;57.634;18.310;2023-07-22T02:01:31;14.70;99.90
12386;DHT22;6257;57.634;18.310;2023-07-22T02:03:58;14.70;99.90
12386;DHT22;6257;57.634;18.310;2023-07-22T02:06:26;14.70;99.90
12386;DHT22;6257;57.634;18.310;2023-07-22T02:08:54;14.60;99.90
12386;DHT22;6257;57.634;18.310;2023-07-22T02:11:21;14.60;99.90
12386;DHT22;6257;57.634;18.310;2023-07-22T02:13:48;14.60;99.90
12386;DHT22;6257;57.634;18.310;2023-07-22T02:18:44;14.60;99.90
12386;DHT22;6257;57.634;18.310;2023-07-22T02:21:11;14.60;99.90
12386;DHT22;6257;57.634;18.310;2023-07-22T02:23:39;14.60;99.90
12386;DHT22;6257;57.634;18.310;2023-07-22T02:26:06;14.50;99.90
12386;DHT22;6257;57.634;18.310;2023-07-22T02:28:33;14.50;99.90
12386;DHT22;6257;57.634;18.310;2023-07-22T02:31:01;14.50;99.90
12386;DHT22;6257;57.634;18.310;2023-07-22T02:33:33;14.50;99.90
12386;DHT22;6257;57.634;18.310;2023-07-22T02:36:00;14.60;99.90
12386;DHT22;6257;57.634;18.310;2023-07-22T02:38:27;14.50;99.90
12386;DHT22;6257;57.634;18.310;2023-07-22T02:43:22;14.60;99.90
12386;DHT22;6257;57.634;18.310;2023-07-22T02:45:49;14.50;99.90
12386;DHT22;6257;57.634;18.310;2023-07-22T02:48:16;14.50;99.90
12386;DHT22;6257;57.634;18.310;2023-07-22T02:53:12;14.50;99.90
12386;DHT22;6257;57.634;18.310;2023-07-22T02:55:39;14.50;99.90
12386;DHT22;6257;57.634;18.310;2023-07-22T02:58:06;14.60;99.90
12386;DHT22;6257;57.634;18.310;2023-07-22T03:00:33;14.60;99.90
12386;DHT22;6257;57.634;18.310;2023-07-22T03:03:00;14.60;99.90
12386;DHT22;6257;57.634;18.310;2023-07-22T03:05:29;14.70;99.90
12386;DHT22;6257;57.634;18.310;2023-07-22T03:07:59;14.70;99.90
12386;DHT22;6257;57.634;18.310;2023-07-22T03:10:26;14.70;99.90
12386;DHT22;6257;57.634;18.310;2023-07-22T03:12:55;14.70;99.90
12386;DHT22;6257;57.634;18.310;2023-07-22T03:15:22;14.80;99.90
12386;DHT22;6257;57.634;18.310;2023-07-22T03:17:51;14.80;99.90
12386;DHT22;6257;57.634;18.310;2023-07-22T03:20:19;14.80;99.90
12386;DHT22;6257;57.634;18.310;2023-07-22T03:22:47;14.70;99.90
12386;DHT22;6257;57.634;18.310;2023-07-22T03:25:16;14.80;99.90
12386;DHT22;6257;57.634;18.310;2023-07-22T03:27:45;14.90;99.90
12386;DHT22;6257;57.634;18.310;2023-07-22T03:30:14;14.90;99.90
12386;DHT22;6257;57.634;18.310;2023-07-22T03:32:41;14.90;99.90
12386;DHT22;6257;57.634;18.310;2023-07-22T03:35:09;15.00;99.90
12386;DHT22;6257;57.634;18.310;2023-07-22T03:37:36;15.10;99.90
12386;DHT22;6257;57.634;18.310;2023-07-22T03:40:05;15.20;99.90
12386;DHT22;6257;57.634;18.310;2023-07-22T03:42:38;15.20;99.90
12386;DHT22;6257;57.634;18.310;2023-07-22T03:45:06;15.30;99.90
12386;DHT22;6257;57.634;18.310;2023-07-22T03:47:34;15.30;99.90
12386;DHT22;6257;57.634;18.310;2023-07-22T03:50:01;15.30;99.90
12386;DHT22;6257;57.634;18.310;2023-07-22T03:52:28;15.30;99.90
12386;DHT22;6257;57.634;18.310;2023-07-22T03:54:55;15.20;99.90
12386;DHT22;6257;57.634;18.310;2023-07-22T03:57:25;15.30;99.90
12386;DHT22;6257;57.634;18.310;2023-07-22T04:02:21;15.30;99.90
12386;DHT22;6257;57.634;18.310;2023-07-22T04:07:17;15.40;99.90
12386;DHT22;6257;57.634;18.310;2023-07-22T04:09:44;15.30;99.90
12386;DHT22;6257;57.634;18.310;2023-07-22T04:12:12;15.40;99.90
12386;DHT22;6257;57.634;18.310;2023-07-22T04:14:39;15.40;99.90
12386;DHT22;6257;57.634;18.310;2023-07-22T04:17:07;15.40;99.90
12386;DHT22;6257;57.634;18.310;2023-07-22T04:19:35;15.40;99.90
12386;DHT22;6257;57.634;18.310;2023-07-22T04:22:02;15.40;99.90
12386;DHT22;6257;57.634;18.310;2023-07-22T04:24:30;15.50;99.90
12386;DHT22;6257;57.634;18.310;2023-07-22T04:26:57;15.50;99.90
12386;DHT22;6257;57.634;18.310;2023-07-22T04:29:24;15.50;99.90
12386;DHT22;6257;57.634;18.310;2023-07-22T04:31:51;15.60;99.90
12386;DHT22;6257;57.634;18.310;2023-07-22T04:34:20;15.70;99.90
12386;DHT22;6257;57.634;18.310;2023-07-22T04:36:47;15.70;99.90
12386;DHT22;6257;57.634;18.310;2023-07-22T04:39:14;15.70;99.90
12386;DHT22;6257;57.634;18.310;2023-07-22T04:41:41;15.70;99.90
12386;DHT22;6257;57.634;18.310;2023-07-22T04:44:08;15.70;99.90
12386;DHT22;6257;57.634;18.310;2023-07-22T04:46:35;15.70;99.90
12386;DHT22;6257;57.634;18.310;2023-07-22T04:49:02;15.80;99.90
12386;DHT22;6257;57.634;18.310;2023-07-22T04:53:58;15.80;99.90
12386;DHT22;6257;57.634;18.310;2023-07-22T04:56:25;15.80;99.90
12386;DHT22;6257;57.634;18.310;2023-07-22T04:58:52;15.80;99.90
12386;DHT22;6257;57.634;18.310;2023-07-22T05:01:19;15.80;99.90
12386;DHT22;6257;57.634;18.310;2023-07-22T05:03:46;15.90;99.90
12386;DHT22;6257;57.634;18.310;2023-07-22T05:06:13;15.90;99.90
12386;DHT22;6257;57.634;18.310;2023-07-22T05:08:42;16.00;99.90
12386;DHT22;6257;57.634;18.310;2023-07-22T05:13:36;16.00;99.90
12386;DHT22;6257;57.634;18.310;2023-07-22T05:16:03;16.00;99.90
12386;DHT22;6257;57.634;18.310;2023-07-22T05:18:30;16.10;99.90
12386;DHT22;6257;57.634;18.310;2023-07-22T05:20:58;16.20;99.90
12386;DHT22;6257;57.634;18.310;2023-07-22T05:23:25;16.30;99.90
12386;DHT22;6257;57.634;18.310;2023-07-22T05:28:21;16.30;99.90
12386;DHT22;6257;57.634;18.310;2023-07-22T05:30:48;16.30;99.90
12386;DHT22;6257;57.634;18.310;2023-07-22T05:33:15;16.30;99.90
12386;DHT22;6257;57.634;18.310;2023-07-22T05:35:42;16.30;99.90
12386;DHT22;6257;57.634;18.310;2023-07-22T05:38:09;16.20;99.90
12386;DHT22;6257;57.634;18.310;2023-07-22T05:40:36;16.20;99.90
12386;DHT22;6257;57.634;18.310;2023-07-22T05:43:05;16.20;99.90
12386;DHT22;6257;57.634;18.310;2023-07-22T05:45:32;16.30;99.90
12386;DHT22;6257;57.634;18.310;2023-07-22T05:47:59;16.20;99.90
12386;DHT22;6257;57.634;18.310;2023-07-22T05:50:26;16.10;99.90
12386;DHT22;6257;57.634;18.310;2023-07-22T05:52:53;16.30;99.90
12386;DHT22;6257;57.634;18.310;2023-07-22T05:55:20;16.20;99.90
12386;DHT22;6257;57.634;18.310;2023-07-22T05:57:47;16.30;99.90
12386;DHT22;6257;57.634;18.310;2023-07-22T06:00:16;16.30;99.90
12386;DHT22;6257;57.634;18.310;2023-07-22T06:02:44;16.30;99.90
12386;DHT22;6257;57.634;18.310;2023-07-22T06:05:11;16.40;99.90
12386;DHT22;6257;57.634;18.310;2023-07-22T06:07:38;16.50;99.90
12386;DHT22;6257;57.634;18.310;2023-07-22T06:10:06;16.50;99.90
12386;DHT22;6257;57.634;18.310;2023-07-22T06:12:34;16.40;99.90
12386;DHT22;6257;57.634;18.310;2023-07-22T06:15:02;16.50;99.90
12386;DHT22;6257;57.634;18.310;2023-07-22T06:19:58;16.60;99.90
12386;DHT22;6257;57.634;18.310;2023-07-22T06:22:25;16.70;99.90
12386;DHT22;6257;57.634;18.310;2023-07-22T06:24:52;16.70;99.90
12386;DHT22;6257;57.634;18.310;2023-07-22T06:27:19;16.60;99.90
12386;DHT22;6257;57.634;18.310;2023-07-22T06:29:46;16.70;99.90
12386;DHT22;6257;57.634;18.310;2023-07-22T06:32:13;17.40;99.90
12386;DHT22;6257;57.634;18.310;2023-07-22T06:37:09;16.70;99.90
12386;DHT22;6257;57.634;18.310;2023-07-22T06:39:36;16.60;99.90
12386;DHT22;6257;57.634;18.310;2023-07-22T06:42:03;16.70;99.90
12386;DHT22;6257;57.634;18.310;2023-07-22T06:44:30;16.90;99.90
12386;DHT22;6257;57.634;18.310;2023-07-22T06:46:57;16.80;99.90
12386;DHT22;6257;57.634;18.310;2023-07-22T06:49:24;16.90;99.90
12386;DHT22;6257;57.634;18.310;2023-07-22T06:51:53;16.90;99.90
12386;DHT22;6257;57.634;18.310;2023-07-22T06:54:20;16.90;99.90
12386;DHT22;6257;57.634;18.310;2023-07-22T06:56:47;17.00;99.90
12386;DHT22;6257;57.634;18.310;2023-07-22T06:59:14;17.00;99.90
12386;DHT22;6257;57.634;18.310;2023-07-22T07:01:41;17.10;99.90
12386;DHT22;6257;57.634;18.310;2023-07-22T07:04:08;17.20;99.90
12386;DHT22;6257;57.634;18.310;2023-07-22T07:06:36;17.30;99.90
12386;DHT22;6257;57.634;18.310;2023-07-22T07:09:05;17.40;99.90
12386;DHT22;6257;57.634;18.310;2023-07-22T07:11:32;17.40;99.90
12386;DHT22;6257;57.634;18.310;2023-07-22T07:13:59;17.60;99.90
12386;DHT22;6257;57.634;18.310;2023-07-22T07:16:28;17.70;99.90
12386;DHT22;6257;57.634;18.310;2023-07-22T07:18:57;17.90;99.90
12386;DHT22;6257;57.634;18.310;2023-07-22T07:21:24;18.10;99.90
12386;DHT22;6257;57.634;18.310;2023-07-22T07:23:52;18.20;99.90
12386;DHT22;6257;57.634;18.310;2023-07-22T07:26:21;18.10;99.90
12386;DHT22;6257;57.634;18.310;2023-07-22T07:28:50;18.10;99.90
12386;DHT22;6257;57.634;18.310;2023-07-22T07:31:17;18.20;99.90
12386;DHT22;6257;57.634;18.310;2023-07-22T07:33:44;18.50;99.90
12386;DHT22;6257;57.634;18.310;2023-07-22T07:36:11;18.60;99.90
12386;DHT22;6257;57.634;18.310;2023-07-22T07:38:38;18.80;99.90
12386;DHT22;6257;57.634;18.310;2023-07-22T07:41:06;19.00;99.90
12386;DHT22;6257;57.634;18.310;2023-07-22T07:43:35;19.10;99.90
12386;DHT22;6257;57.634;18.310;2023-07-22T07:46:19;18.90;99.90
12386;DHT22;6257;57.634;18.310;2023-07-22T07:48:48;18.90;99.90
12386;DHT22;6257;57.634;18.310;2023-07-22T07:51:16;19.20;99.90
12386;DHT22;6257;57.634;18.310;2023-07-22T07:53:43;19.30;99.90
12386;DHT22;6257;57.634;18.310;2023-07-22T07:56:11;19.60;99.90
12386;DHT22;6257;57.634;18.310;2023-07-22T07:58:40;19.60;99.90
12386;DHT22;6257;57.634;18.310;2023-07-22T08:01:07;19.80;99.90
12386;DHT22;6257;57.634;18.310;2023-07-22T08:03:36;19.70;99.90
12386;DHT22;6257;57.634;18.310;2023-07-22T08:06:03;19.70;99.90
12386;DHT22;6257;57.634;18.310;2023-07-22T08:08:30;19.80;99.90
12386;DHT22;6257;57.634;18.310;2023-07-22T08:10:58;20.10;99.90
12386;DHT22;6257;57.634;18.310;2023-07-22T08:13:26;20.30;99.90
12386;DHT22;6257;57.634;18.310;2023-07-22T08:15:55;20.30;99.90
12386;DHT22;6257;57.634;18.310;2023-07-22T08:18:22;20.40;99.90
12386;DHT22;6257;57.634;18.310;2023-07-22T08:20:50;21.00;99.90
12386;DHT22;6257;57.634;18.310;2023-07-22T08:23:18;21.30;99.90
12386;DHT22;6257;57.634;18.310;2023-07-22T08:25:45;21.20;99.90
12386;DHT22;6257;57.634;18.310;2023-07-22T08:28:12;21.10;99.90
12386;DHT22;6257;57.634;18.310;2023-07-22T08:30:39;20.70;99.50
12386;DHT22;6257;57.634;18.310;2023-07-22T08:35:37;19.90;99.90
12386;DHT22;6257;57.634;18.310;2023-07-22T08:38:05;20.70;99.90
12386;DHT22;6257;57.634;18.310;2023-07-22T08:40:36;21.20;99.90
12386;DHT22;6257;57.634;18.310;2023-07-22T08:43:05;21.60;99.90
12386;DHT22;6257;57.634;18.310;2023-07-22T08:45:34;22.10;99.90
12386;DHT22;6257;57.634;18.310;2023-07-22T08:48:03;22.40;99.90
12386;DHT22;6257;57.634;18.310;2023-07-22T08:50:40;21.80;99.80
12386;DHT22;6257;57.634;18.310;2023-07-22T08:53:08;21.40;99.90
12386;DHT22;6257;57.634;18.310;2023-07-22T08:55:35;21.30;99.90
12386;DHT22;6257;57.634;18.310;2023-07-22T08:58:07;20.90;99.90
12386;DHT22;6257;57.634;18.310;2023-07-22T09:00:35;20.90;99.90
12386;DHT22;6257;57.634;18.310;2023-07-22T09:03:02;20.90;99.90
12386;DHT22;6257;57.634;18.310;2023-07-22T09:05:31;20.80;99.90
12386;DHT22;6257;57.634;18.310;2023-07-22T09:08:02;20.20;99.90
12386;DHT22;6257;57.634;18.310;2023-07-22T09:10:31;20.20;99.90
12386;DHT22;6257;57.634;18.310;2023-07-22T09:12:59;20.00;99.90
12386;DHT22;6257;57.634;18.310;2023-07-22T09:15:27;20.00;99.90
12386;DHT22;6257;57.634;18.310;2023-07-22T09:17:54;20.00;99.90
12386;DHT22;6257;57.634;18.310;2023-07-22T09:20:21;20.00;99.90
12386;DHT22;6257;57.634;18.310;2023-07-22T09:22:50;19.80;99.90
12386;DHT22;6257;57.634;18.310;2023-07-22T09:25:19;19.50;99.90
12386;DHT22;6257;57.634;18.310;2023-07-22T09:27:48;19.50;99.90
12386;DHT22;6257;57.634;18.310;2023-07-22T09:30:24;19.60;99.90
12386;DHT22;6257;57.634;18.310;2023-07-22T09:32:53;19.90;99.90
12386;DHT22;6257;57.634;18.310;2023-07-22T09:35:21;20.10;99.90
12386;DHT22;6257;57.634;18.310;2023-07-22T09:37:48;19.90;99.90
12386;DHT22;6257;57.634;18.310;2023-07-22T09:40:18;19.70;99.90
12386;DHT22;6257;57.634;18.310;2023-07-22T09:42:47;19.50;99.90
12386;DHT22;6257;57.634;18.310;2023-07-22T09:45:15;19.60;99.90
12386;DHT22;6257;57.634;18.310;2023-07-22T09:47:43;19.70;99.90
12386;DHT22;6257;57.634;18.310;2023-07-22T09:50:11;19.50;99.90
12386;DHT22;6257;57.634;18.310;2023-07-22T09:52:46;19.50;99.90
12386;DHT22;6257;57.634;18.310;2023-07-22T09:55:15;19.50;99.90
12386;DHT22;6257;57.634;18.310;2023-07-22T09:57:46;19.40;99.90
12386;DHT22;6257;57.634;18.310;2023-07-22T10:00:14;19.50;99.90
12386;DHT22;6257;57.634;18.310;2023-07-22T10:02:42;19.50;99.90
12386;DHT22;6257;57.634;18.310;2023-07-22T10:05:14;19.60;99.90
12386;DHT22;6257;57.634;18.310;2023-07-22T10:07:46;19.70;99.90
12386;DHT22;6257;57.634;18.310;2023-07-22T10:10:16;19.70;99.90
12386;DHT22;6257;57.634;18.310;2023-07-22T10:12:45;19.30;99.90
12386;DHT22;6257;57.634;18.310;2023-07-22T10:15:14;19.30;99.90
12386;DHT22;6257;57.634;18.310;2023-07-22T10:17:44;19.20;99.90
12386;DHT22;6257;57.634;18.310;2023-07-22T10:20:12;19.20;99.90
12386;DHT22;6257;57.634;18.310;2023-07-22T10:22:42;19.40;99.90
12386;DHT22;6257;57.634;18.310;2023-07-22T10:25:11;19.30;99.90
12386;DHT22;6257;57.634;18.310;2023-07-22T10:27:39;19.20;99.90
12386;DHT22;6257;57.634;18.310;2023-07-22T10:30:09;19.20;99.90
12386;DHT22;6257;57.634;18.310;2023-07-22T10:32:38;19.40;99.90
12386;DHT22;6257;57.634;18.310;2023-07-22T10:35:08;19.50;99.90
12386;DHT22;6257;57.634;18.310;2023-07-22T10:37:37;19.70;99.90
12386;DHT22;6257;57.634;18.310;2023-07-22T10:40:17;19.70;99.90
12386;DHT22;6257;57.634;18.310;2023-07-22T10:42:59;19.70;99.90
12386;DHT22;6257;57.634;18.310;2023-07-22T10:45:29;19.50;99.90
12386;DHT22;6257;57.634;18.310;2023-07-22T10:48:05;19.50;99.90
12386;DHT22;6257;57.634;18.310;2023-07-22T10:50:43;19.60;99.90
12386;DHT22;6257;57.634;18.310;2023-07-22T10:53:13;19.60;99.70
12386;DHT22;6257;57.634;18.310;2023-07-22T10:56:03;19.70;99.90
12386;DHT22;6257;57.634;18.310;2023-07-22T10:58:30;19.70;99.90
12386;DHT22;6257;57.634;18.310;2023-07-22T11:01:22;19.90;99.90
12386;DHT22;6257;57.634;18.310;2023-07-22T11:04:21;19.90;99.90
12386;DHT22;6257;57.634;18.310;2023-07-22T11:06:56;19.70;99.90
12386;DHT22;6257;57.634;18.310;2023-07-22T11:09:39;19.30;99.90
12386;DHT22;6257;57.634;18.310;2023-07-22T11:12:10;18.70;99.90
12386;DHT22;6257;57.634;18.310;2023-07-22T11:14:39;18.70;99.90
12386;DHT22;6257;57.634;18.310;2023-07-22T11:19:37;18.80;99.90
12386;DHT22;6257;57.634;18.310;2023-07-22T11:22:05;18.40;99.90
12386;DHT22;6257;57.634;18.310;2023-07-22T11:24:33;18.20;99.90
12386;DHT22;6257;57.634;18.310;2023-07-22T11:27:03;18.10;99.90
12386;DHT22;6257;57.634;18.310;2023-07-22T11:29:30;18.30;99.90
12386;DHT22;6257;57.634;18.310;2023-07-22T11:31:57;18.40;99.90
12386;DHT22;6257;57.634;18.310;2023-07-22T11:34:25;18.40;99.90
12386;DHT22;6257;57.634;18.310;2023-07-22T11:36:54;18.40;99.90
12386;DHT22;6257;57.634;18.310;2023-07-22T11:39:22;18.40;99.90
12386;DHT22;6257;57.634;18.310;2023-07-22T11:41:51;18.40;99.90
12386;DHT22;6257;57.634;18.310;2023-07-22T11:44:19;18.50;99.90
12386;DHT22;6257;57.634;18.310;2023-07-22T11:46:48;18.60;99.90
12386;DHT22;6257;57.634;18.310;2023-07-22T11:49:23;18.50;99.90
12386;DHT22;6257;57.634;18.310;2023-07-22T11:51:54;18.50;99.90
12386;DHT22;6257;57.634;18.310;2023-07-22T11:54:21;18.60;99.90
12386;DHT22;6257;57.634;18.310;2023-07-22T11:56:48;18.70;99.90
12386;DHT22;6257;57.634;18.310;2023-07-22T11:59:15;18.60;99.90
12386;DHT22;6257;57.634;18.310;2023-07-22T12:01:44;18.70;99.90
12386;DHT22;6257;57.634;18.310;2023-07-22T12:04:12;18.60;99.90
12386;DHT22;6257;57.634;18.310;2023-07-22T12:06:39;18.80;99.90
12386;DHT22;6257;57.634;18.310;2023-07-22T12:09:09;18.90;99.90
12386;DHT22;6257;57.634;18.310;2023-07-22T12:11:37;19.00;99.90
12386;DHT22;6257;57.634;18.310;2023-07-22T12:14:08;19.10;99.90
12386;DHT22;6257;57.634;18.310;2023-07-22T12:16:37;19.10;99.90
12386;DHT22;6257;57.634;18.310;2023-07-22T12:19:04;19.00;99.90
12386;DHT22;6257;57.634;18.310;2023-07-22T12:21:32;19.20;99.90
12386;DHT22;6257;57.634;18.310;2023-07-22T12:23:59;19.10;99.90
12386;DHT22;6257;57.634;18.310;2023-07-22T12:26:28;18.90;99.90
12386;DHT22;6257;57.634;18.310;2023-07-22T12:28:54;18.90;99.90
12386;DHT22;6257;57.634;18.310;2023-07-22T12:31:21;18.90;99.90
12386;DHT22;6257;57.634;18.310;2023-07-22T12:33:48;19.10;99.90
12386;DHT22;6257;57.634;18.310;2023-07-22T12:36:17;19.30;99.90
12386;DHT22;6257;57.634;18.310;2023-07-22T12:38:44;19.40;99.90
12386;DHT22;6257;57.634;18.310;2023-07-22T12:41:11;19.40;99.90
12386;DHT22;6257;57.634;18.310;2023-07-22T12:43:39;19.50;99.90
12386;DHT22;6257;57.634;18.310;2023-07-22T12:46:06;19.40;99.90
12386;DHT22;6257;57.634;18.310;2023-07-22T12:48:33;19.30;99.90
12386;DHT22;6257;57.634;18.310;2023-07-22T12:51:00;19.40;99.90
12386;DHT22;6257;57.634;18.310;2023-07-22T12:53:28;19.60;99.90
12386;DHT22;6257;57.634;18.310;2023-07-22T12:55:55;19.70;99.90
12386;DHT22;6257;57.634;18.310;2023-07-22T12:58:22;19.90;99.90
12386;DHT22;6257;57.634;18.310;2023-07-22T13:00:50;20.00;99.90
12386;DHT22;6257;57.634;18.310;2023-07-22T13:03:17;20.00;99.90
12386;DHT22;6257;57.634;18.310;2023-07-22T13:05:44;20.20;99.90
12386;DHT22;6257;57.634;18.310;2023-07-22T13:08:12;20.40;99.90
12386;DHT22;6257;57.634;18.310;2023-07-22T13:10:39;20.60;99.90
12386;DHT22;6257;57.634;18.310;2023-07-22T13:13:09;20.60;99.90
12386;DHT22;6257;57.634;18.310;2023-07-22T13:15:36;20.50;99.90
12386;DHT22;6257;57.634;18.310;2023-07-22T13:18:05;20.10;99.90
12386;DHT22;6257;57.634;18.310;2023-07-22T13:20:33;19.70;99.90
12386;DHT22;6257;57.634;18.310;2023-07-22T13:23:00;19.30;99.90
12386;DHT22;6257;57.634;18.310;2023-07-22T13:25:27;19.00;99.90
12386;DHT22;6257;57.634;18.310;2023-07-22T13:27:55;18.60;99.90
12386;DHT22;6257;57.634;18.310;2023-07-22T13:30:22;18.30;99.90
12386;DHT22;6257;57.634;18.310;2023-07-22T13:32:49;18.00;99.90
12386;DHT22;6257;57.634;18.310;2023-07-22T13:35:20;17.70;99.90
12386;DHT22;6257;57.634;18.310;2023-07-22T13:37:47;17.40;99.90
12386;DHT22;6257;57.634;18.310;2023-07-22T13:40:14;17.20;99.90
12386;DHT22;6257;57.634;18.310;2023-07-22T13:42:41;16.90;99.90
12386;DHT22;6257;57.634;18.310;2023-07-22T13:45:09;17.00;99.90
12386;DHT22;6257;57.634;18.310;2023-07-22T13:47:36;16.60;99.90
12386;DHT22;6257;57.634;18.310;2023-07-22T13:50:03;16.70;99.90
12386;DHT22;6257;57.634;18.310;2023-07-22T13:52:32;16.90;99.90
12386;DHT22;6257;57.634;18.310;2023-07-22T13:54:59;17.30;99.90
12386;DHT22;6257;57.634;18.310;2023-07-22T13:57:26;17.50;99.90
12386;DHT22;6257;57.634;18.310;2023-07-22T13:59:53;17.70;99.90
12386;DHT22;6257;57.634;18.310;2023-07-22T14:02:20;17.90;99.90
12386;DHT22;6257;57.634;18.310;2023-07-22T14:04:47;18.00;99.90
12386;DHT22;6257;57.634;18.310;2023-07-22T14:07:14;18.10;99.90
12386;DHT22;6257;57.634;18.310;2023-07-22T14:09:43;18.20;99.90
12386;DHT22;6257;57.634;18.310;2023-07-22T14:12:10;18.30;99.90
12386;DHT22;6257;57.634;18.310;2023-07-22T14:14:37;18.40;99.90
12386;DHT22;6257;57.634;18.310;2023-07-22T14:17:05;18.30;99.90
12386;DHT22;6257;57.634;18.310;2023-07-22T14:19:33;18.20;99.90
12386;DHT22;6257;57.634;18.310;2023-07-22T14:22:00;18.40;99.90
12386;DHT22;6257;57.634;18.310;2023-07-22T14:24:27;18.60;99.90
12386;DHT22;6257;57.634;18.310;2023-07-22T14:29:23;19.20;99.90
12386;DHT22;6257;57.634;18.310;2023-07-22T14:31:51;19.40;99.90
12386;DHT22;6257;57.634;18.310;2023-07-22T14:34:18;19.10;99.90
12386;DHT22;6257;57.634;18.310;2023-07-22T14:36:45;18.90;99.90
12386;DHT22;6257;57.634;18.310;2023-07-22T14:39:12;18.80;99.90
12386;DHT22;6257;57.634;18.310;2023-07-22T14:41:41;18.70;99.90
12386;DHT22;6257;57.634;18.310;2023-07-22T14:46:36;18.60;99.90
12386;DHT22;6257;57.634;18.310;2023-07-22T14:49:04;18.70;99.90
12386;DHT22;6257;57.634;18.310;2023-07-22T14:51:35;18.90;99.90
12386;DHT22;6257;57.634;18.310;2023-07-22T14:54:02;19.10;99.90
12386;DHT22;6257;57.634;18.310;2023-07-22T14:56:29;19.20;99.90
12386;DHT22;6257;57.634;18.310;2023-07-22T15:03:52;18.80;99.90
12386;DHT22;6257;57.634;18.310;2023-07-22T15:06:21;18.70;99.90
12386;DHT22;6257;57.634;18.310;2023-07-22T15:08:48;18.30;99.90
12386;DHT22;6257;57.634;18.310;2023-07-22T15:11:15;18.10;99.90
12386;DHT22;6257;57.634;18.310;2023-07-22T15:13:42;17.90;99.90
12386;DHT22;6257;57.634;18.310;2023-07-22T15:16:09;18.00;99.90
12386;DHT22;6257;57.634;18.310;2023-07-22T15:21:05;18.00;99.90
12386;DHT22;6257;57.634;18.310;2023-07-22T15:23:32;17.80;99.90
12386;DHT22;6257;57.634;18.310;2023-07-22T15:25:59;17.90;99.90
12386;DHT22;6257;57.634;18.310;2023-07-22T15:28:26;17.90;99.90
12386;DHT22;6257;57.634;18.310;2023-07-22T15:30:53;17.90;99.90
12386;DHT22;6257;57.634;18.310;2023-07-22T15:33:20;17.70;99.90
12386;DHT22;6257;57.634;18.310;2023-07-22T15:35:49;17.60;99.90
12386;DHT22;6257;57.634;18.310;2023-07-22T15:38:16;17.40;99.90
12386;DHT22;6257;57.634;18.310;2023-07-22T15:40:43;17.40;99.90
12386;DHT22;6257;57.634;18.310;2023-07-22T15:43:11;17.30;99.90
12386;DHT22;6257;57.634;18.310;2023-07-22T15:45:38;17.30;99.90
12386;DHT22;6257;57.634;18.310;2023-07-22T15:48:05;17.20;99.90
12386;DHT22;6257;57.634;18.310;2023-07-22T15:50:32;17.30;99.90
12386;DHT22;6257;57.634;18.310;2023-07-22T15:53:01;17.30;99.90
12386;DHT22;6257;57.634;18.310;2023-07-22T15:55:28;17.30;99.90
12386;DHT22;6257;57.634;18.310;2023-07-22T15:57:55;17.40;99.90
12386;DHT22;6257;57.634;18.310;2023-07-22T16:00:22;17.40;99.90
12386;DHT22;6257;57.634;18.310;2023-07-22T16:02:49;17.40;99.90
12386;DHT22;6257;57.634;18.310;2023-07-22T16:05:17;17.30;99.90
12386;DHT22;6257;57.634;18.310;2023-07-22T16:07:44;17.30;99.90
12386;DHT22;6257;57.634;18.310;2023-07-22T16:10:12;17.30;99.90
12386;DHT22;6257;57.634;18.310;2023-07-22T16:12:39;17.20;99.90
12386;DHT22;6257;57.634;18.310;2023-07-22T16:15:08;17.40;99.90
12386;DHT22;6257;57.634;18.310;2023-07-22T16:17:35;17.40;99.90
12386;DHT22;6257;57.634;18.310;2023-07-22T16:20:02;17.30;99.90
12386;DHT22;6257;57.634;18.310;2023-07-22T16:22:30;17.20;99.90
12386;DHT22;6257;57.634;18.310;2023-07-22T16:24:57;17.10;99.90
12386;DHT22;6257;57.634;18.310;2023-07-22T16:29:53;16.90;99.90